Time;durP1;ratioP1;P1;durP2;ratioP2;P2;SDS_P1;SDS_P2;PMS_P1;PMS_P2;Temp;Humidity;BMP_temperature;BMP_pressure;BME280_temperature;BME280_humidity;BME280_pressure;Samples;Min_cycle;Max_cycle;Signal;HPM_P1;HPM_P2
2024/03/03 00:02:07;;;;;;;28.52;26.80;;;;;;;;;;5044961;28;20040;-70
2024/03/03 00:04:53;;;;;;;27.55;25.95;;;;;;;;;;5066688;28;20040;-70
2024/03/03 00:07:39;;;;;;;27.83;25.63;;;;;;;;;;5062991;28;20052;-69
2024/03/03 00:10:24;;;;;;;24.63;23.13;;;;;;;;;;5063817;28;20150;-70
2024/03/03 00:13:10;;;;;;;27.98;25.73;;;;;;;;;;5062788;28;20036;-70
2024/03/03 00:15:55;;;;;;;25.52;23.92;;;;;;;;;;5065234;28;20044;-70
2024/03/03 00:18:41;;;;;;;27.52;25.73;;;;;;;;;;5062154;28;20055;-70
2024/03/03 00:21:27;;;;;;;24.30;22.85;;;;;;;;;;5065065;28;20490;-70
2024/03/03 00:24:12;;;;;;;28.33;26.08;;;;;;;;;;5060724;28;20050;-69
2024/03/03 00:26:58;;;;;;;26.08;24.58;;;;;;;;;;5069934;28;20037;-70
2024/03/03 00:29:44;;;;;;;26.10;24.52;;;;;;;;;;5060259;28;20115;-70
2024/03/03 00:32:29;;;;;;;27.67;25.80;;;;;;;;;;5066385;28;20259;-70
2024/03/03 00:35:15;;;;;;;26.40;24.80;;;;;;;;;;5046010;28;20028;-70
2024/03/03 00:38:00;;;;;;;27.20;25.52;;;;;;;;;;5063975;28;20127;-69
2024/03/03 00:40:46;;;;;;;28.48;26.88;;;;;;;;;;5061763;28;20044;-69
2024/03/03 00:43:32;;;;;;;32.17;30.17;;;;;;;;;;5063764;28;20071;-70
2024/03/03 00:46:18;;;;;;;33.08;30.88;;;;;;;;;;5062759;28;20104;-70
2024/03/03 00:49:03;;;;;;;34.83;32.63;;;;;;;;;;5062221;28;20135;-70
2024/03/03 00:51:49;;;;;;;31.73;29.92;;;;;;;;;;5048129;28;20144;-70
2024/03/03 00:54:34;;;;;;;33.63;31.65;;;;;;;;;;5061826;28;21191;-70
2024/03/03 00:57:20;;;;;;;33.50;31.30;;;;;;;;;;5059872;28;20032;-70
2024/03/03 01:00:08;;;;;;;33.35;31.25;;;;;;;;;;5061866;28;20040;-70
2024/03/03 01:02:54;;;;;;;32.28;29.50;;;;;;;;;;5060253;28;20036;-69
2024/03/03 01:05:40;;;;;;;29.00;26.90;;;;;;;;;;5063323;28;20045;-69
2024/03/03 01:08:25;;;;;;;30.40;28.50;;;;;;;;;;5067615;28;20039;-70
2024/03/03 01:11:11;;;;;;;28.80;27.10;;;;;;;;;;5062664;28;20193;-70
2024/03/03 01:13:56;;;;;;;30.02;27.95;;;;;;;;;;5060822;28;20075;-70
2024/03/03 01:16:42;;;;;;;27.83;26.10;;;;;;;;;;5061968;28;20044;-70
2024/03/03 01:19:28;;;;;;;29.80;27.90;;;;;;;;;;5063858;28;20068;-69
2024/03/03 01:22:14;;;;;;;32.00;29.83;;;;;;;;;;5060951;28;20066;-69
2024/03/03 01:24:59;;;;;;;30.25;28.38;;;;;;;;;;5062387;28;20032;-69
2024/03/03 01:27:45;;;;;;;29.05;27.05;;;;;;;;;;5060647;28;20460;-69
2024/03/03 01:30:30;;;;;;;28.63;26.50;;;;;;;;;;5057841;28;20040;-70
2024/03/03 01:33:16;;;;;;;28.17;26.58;;;;;;;;;;5061612;28;20051;-70
2024/03/03 01:36:02;;;;;;;27.40;25.80;;;;;;;;;;5064541;28;20032;-70
2024/03/03 01:38:47;;;;;;;29.98;27.75;;;;;;;;;;5060181;28;20040;-70
2024/03/03 01:41:33;;;;;;;30.10;28.20;;;;;;;;;;5060879;28;20066;-70
2024/03/03 01:44:18;;;;;;;28.23;26.52;;;;;;;;;;5062466;28;20067;-70
2024/03/03 01:47:04;;;;;;;27.00;25.58;;;;;;;;;;5062580;28;20044;-70
2024/03/03 01:49:52;;;;;;;28.15;26.55;;;;;;;;;;5061726;28;20131;-70
2024/03/03 01:52:37;;;;;;;27.90;26.20;;;;;;;;;;5061793;28;20532;-70
2024/03/03 01:55:23;;;;;;;27.95;25.60;;;;;;;;;;5058689;28;20112;-70
2024/03/03 01:58:11;;;;;;;29.67;27.88;;;;;;;;;;5063916;28;20612;-70
2024/03/03 02:01:01;;;;;;;28.17;26.60;;;;;;;;;;5061121;28;20563;-70
2024/03/03 02:03:48;;;;;;;26.95;25.45;;;;;;;;;;5062481;28;20611;-70
2024/03/03 02:06:34;;;;;;;26.65;25.15;;;;;;;;;;5060443;28;20550;-69
2024/03/03 02:09:21;;;;;;;27.40;25.80;;;;;;;;;;5058937;28;20033;-70
2024/03/03 02:12:07;;;;;;;26.42;24.83;;;;;;;;;;5059373;28;20454;-70
2024/03/03 02:14:52;;;;;;;27.92;26.25;;;;;;;;;;5063547;28;20058;-70
2024/03/03 02:17:38;;;;;;;30.27;28.40;;;;;;;;;;5061304;28;20470;-70
2024/03/03 02:20:24;;;;;;;28.15;26.52;;;;;;;;;;5059033;28;20039;-70
2024/03/03 02:23:09;;;;;;;27.58;25.88;;;;;;;;;;5059142;28;20072;-70
2024/03/03 02:25:55;;;;;;;30.48;28.67;;;;;;;;;;5058767;28;20438;-70
2024/03/03 02:28:41;;;;;;;27.60;25.90;;;;;;;;;;5062910;28;20036;-70
2024/03/03 02:31:27;;;;;;;27.98;26.45;;;;;;;;;;5057964;28;20063;-70
2024/03/03 02:34:12;;;;;;;26.05;24.35;;;;;;;;;;5067199;28;20087;-71
2024/03/03 02:36:58;;;;;;;26.20;24.75;;;;;;;;;;5057344;28;20052;-69
2024/03/03 02:39:43;;;;;;;27.90;26.30;;;;;;;;;;5069104;28;20435;-70
2024/03/03 02:42:29;;;;;;;28.08;26.45;;;;;;;;;;5060387;28;20051;-70
2024/03/03 02:45:15;;;;;;;27.05;25.55;;;;;;;;;;5066158;28;20043;-69
2024/03/03 02:48:00;;;;;;;28.25;26.55;;;;;;;;;;5051802;28;20053;-70
2024/03/03 02:50:46;;;;;;;26.40;24.83;;;;;;;;;;5062816;28;20040;-69
2024/03/03 02:53:31;;;;;;;26.98;25.38;;;;;;;;;;5061375;28;20033;-70
2024/03/03 02:56:17;;;;;;;25.10;23.60;;;;;;;;;;5069744;28;20105;-70
2024/03/03 02:59:03;;;;;;;26.83;25.25;;;;;;;;;;5063422;28;20142;-70
2024/03/03 03:01:48;;;;;;;26.08;24.67;;;;;;;;;;5064897;28;20045;-70
2024/03/03 03:04:34;;;;;;;27.55;25.90;;;;;;;;;;5064306;28;20032;-70
2024/03/03 03:07:20;;;;;;;26.40;24.80;;;;;;;;;;5067386;28;20489;-70
2024/03/03 03:10:06;;;;;;;29.33;27.63;;;;;;;;;;5064102;28;20036;-70
2024/03/03 03:12:52;;;;;;;28.52;26.65;;;;;;;;;;5052261;28;20043;-70
2024/03/03 03:15:37;;;;;;;26.05;24.63;;;;;;;;;;5063814;28;20041;-70
2024/03/03 03:18:23;;;;;;;27.55;25.85;;;;;;;;;;5064336;28;21273;-70
2024/03/03 03:21:09;;;;;;;26.95;25.35;;;;;;;;;;5049333;28;20066;-59
2024/03/03 03:23:54;;;;;;;26.80;25.20;;;;;;;;;;5066207;28;20040;-59
2024/03/03 03:26:40;;;;;;;26.55;24.95;;;;;;;;;;5063203;28;20032;-59
2024/03/03 03:29:25;;;;;;;27.90;25.92;;;;;;;;;;5063427;28;20713;-60
2024/03/03 03:32:11;;;;;;;27.33;25.75;;;;;;;;;;5064596;28;20076;-59
2024/03/03 03:34:57;;;;;;;27.65;26.02;;;;;;;;;;5068966;28;20377;-59
2024/03/03 03:37:42;;;;;;;28.13;26.13;;;;;;;;;;5061040;28;20482;-59
2024/03/03 03:40:28;;;;;;;27.35;25.70;;;;;;;;;;5054923;28;20066;-59
2024/03/03 03:43:14;;;;;;;27.23;25.70;;;;;;;;;;5048197;28;20041;-59
2024/03/03 03:46:00;;;;;;;28.02;26.42;;;;;;;;;;5050917;28;20067;-59
2024/03/03 03:48:46;;;;;;;29.08;27.35;;;;;;;;;;5046657;28;20048;-59
2024/03/03 03:51:31;;;;;;;28.10;26.50;;;;;;;;;;5064147;28;20036;-59
2024/03/03 03:54:17;;;;;;;28.55;26.70;;;;;;;;;;5059527;28;20047;-59
2024/03/03 03:57:03;;;;;;;29.27;27.67;;;;;;;;;;5062618;28;20491;-59
2024/03/03 03:59:48;;;;;;;28.80;26.67;;;;;;;;;;5062587;28;20044;-59
2024/03/03 04:02:34;;;;;;;28.20;26.60;;;;;;;;;;5055772;28;20071;-59
2024/03/03 04:05:20;;;;;;;26.58;25.00;;;;;;;;;;5051474;28;20044;-60
2024/03/03 04:08:06;;;;;;;28.00;26.40;;;;;;;;;;5065919;28;20054;-60
2024/03/03 04:10:51;;;;;;;27.58;26.02;;;;;;;;;;5063900;28;20128;-59
2024/03/03 04:13:37;;;;;;;26.95;25.38;;;;;;;;;;5065317;28;20027;-59
2024/03/03 04:16:22;;;;;;;28.55;26.75;;;;;;;;;;5063216;28;20036;-60
2024/03/03 04:19:08;;;;;;;26.13;24.60;;;;;;;;;;5064502;28;20113;-59
2024/03/03 04:21:53;;;;;;;26.50;24.85;;;;;;;;;;5067835;28;20087;-59
2024/03/03 04:24:39;;;;;;;25.83;24.30;;;;;;;;;;5065551;28;20160;-59
2024/03/03 04:27:25;;;;;;;26.70;25.20;;;;;;;;;;5067042;28;20102;-59
2024/03/03 04:30:10;;;;;;;27.48;25.88;;;;;;;;;;5063291;28;20044;-59
2024/03/03 04:32:56;;;;;;;28.52;26.77;;;;;;;;;;5055093;28;20518;-59
2024/03/03 04:35:42;;;;;;;27.38;25.67;;;;;;;;;;5056669;28;20036;-59
2024/03/03 04:38:28;;;;;;;29.30;26.75;;;;;;;;;;5048532;28;20048;-59
2024/03/03 04:41:18;;;;;;;28.35;26.75;;;;;;;;;;5050883;28;20044;-59
2024/03/03 04:44:05;;;;;;;29.08;27.45;;;;;;;;;;5062680;28;20036;-59
2024/03/03 04:46:51;;;;;;;33.05;31.15;;;;;;;;;;5063526;28;20055;-59
2024/03/03 04:49:39;;;;;;;33.92;32.03;;;;;;;;;;5058025;28;20461;-59
2024/03/03 04:52:24;;;;;;;31.30;29.58;;;;;;;;;;5061241;28;20088;-60
2024/03/03 04:55:10;;;;;;;33.67;31.48;;;;;;;;;;5051940;28;20039;-59
2024/03/03 04:57:56;;;;;;;33.67;31.70;;;;;;;;;;5060306;28;20146;-59
2024/03/03 05:00:41;;;;;;;31.45;29.65;;;;;;;;;;5063491;28;20132;-59
2024/03/03 05:03:27;;;;;;;30.15;28.20;;;;;;;;;;5059482;28;20040;-59
2024/03/03 05:06:13;;;;;;;29.50;27.67;;;;;;;;;;5062566;28;20044;-59
2024/03/03 05:08:59;;;;;;;31.25;29.25;;;;;;;;;;5065860;28;20179;-59
2024/03/03 05:11:44;;;;;;;33.08;31.17;;;;;;;;;;5063005;28;20036;-59
2024/03/03 05:14:30;;;;;;;33.13;31.13;;;;;;;;;;5060860;28;20422;-59
2024/03/03 05:17:16;;;;;;;32.47;30.58;;;;;;;;;;5064209;28;20043;-60
2024/03/03 05:20:02;;;;;;;31.02;29.33;;;;;;;;;;5060258;28;20419;-59
2024/03/03 05:22:48;;;;;;;31.48;29.60;;;;;;;;;;5048087;28;20040;-59
2024/03/03 05:25:34;;;;;;;29.73;28.05;;;;;;;;;;5048770;28;20037;-59
2024/03/03 05:28:20;;;;;;;30.88;29.10;;;;;;;;;;5062249;28;20101;-59
2024/03/03 05:31:06;;;;;;;28.88;27.08;;;;;;;;;;5050475;28;20048;-59
2024/03/03 05:33:51;;;;;;;31.27;29.50;;;;;;;;;;5048183;28;20036;-59
2024/03/03 05:36:39;;;;;;;30.42;28.73;;;;;;;;;;5064327;28;20190;-59
2024/03/03 05:39:25;;;;;;;31.33;29.52;;;;;;;;;;5060140;28;20058;-59
2024/03/03 05:42:11;;;;;;;31.27;29.42;;;;;;;;;;5061630;28;20071;-59
2024/03/03 05:44:57;;;;;;;28.33;26.70;;;;;;;;;;5062976;28;20134;-59
2024/03/03 05:47:43;;;;;;;31.40;29.60;;;;;;;;;;5072582;28;20131;-60
2024/03/03 05:50:28;;;;;;;32.40;30.30;;;;;;;;;;5049097;28;20031;-59
2024/03/03 05:53:14;;;;;;;30.98;29.23;;;;;;;;;;5062250;28;20036;-61
2024/03/03 05:56:00;;;;;;;29.23;27.52;;;;;;;;;;5064862;28;20032;-59
2024/03/03 05:58:45;;;;;;;31.02;29.13;;;;;;;;;;5050086;28;20131;-59
2024/03/03 06:01:31;;;;;;;29.48;27.88;;;;;;;;;;5061934;28;20727;-59
2024/03/03 06:04:17;;;;;;;31.33;29.52;;;;;;;;;;5063342;28;20039;-59
2024/03/03 06:07:04;;;;;;;30.13;28.42;;;;;;;;;;5063182;28;20124;-59
2024/03/03 06:09:50;;;;;;;31.77;29.50;;;;;;;;;;5051698;28;20096;-59
2024/03/03 06:12:36;;;;;;;29.98;28.20;;;;;;;;;;5064909;28;20041;-59
2024/03/03 06:15:21;;;;;;;30.73;29.00;;;;;;;;;;5059635;28;20120;-59
2024/03/03 06:18:07;;;;;;;31.63;29.73;;;;;;;;;;5070580;28;20024;-59
2024/03/03 06:20:53;;;;;;;30.25;28.38;;;;;;;;;;5062938;28;20043;-59
2024/03/03 06:23:39;;;;;;;29.85;28.13;;;;;;;;;;5061958;28;20182;-59
2024/03/03 06:26:32;;;;;;;31.80;29.58;;;;;;;;;;5065629;28;21020;-59
2024/03/03 06:29:18;;;;;;;29.50;27.80;;;;;;;;;;5065667;28;20043;-59
2024/03/03 06:32:03;;;;;;;33.00;31.02;;;;;;;;;;5060950;28;20105;-60
2024/03/03 06:34:50;;;;;;;30.67;28.95;;;;;;;;;;5065505;28;20071;-59
2024/03/03 06:37:36;;;;;;;33.60;31.70;;;;;;;;;;5063162;28;20036;-60
2024/03/03 06:40:22;;;;;;;31.95;30.00;;;;;;;;;;5063800;28;20363;-59
2024/03/03 06:43:08;;;;;;;29.67;27.98;;;;;;;;;;5063651;28;20033;-59
2024/03/03 06:45:53;;;;;;;32.33;30.10;;;;;;;;;;5065432;28;20040;-59
2024/03/03 06:48:39;;;;;;;28.23;26.38;;;;;;;;;;5064483;28;20049;-59
2024/03/03 06:51:25;;;;;;;27.77;26.17;;;;;;;;;;5063880;28;20036;-65
2024/03/03 06:54:11;;;;;;;29.50;27.50;;;;;;;;;;5065571;28;20435;-66
2024/03/03 06:56:57;;;;;;;30.40;28.65;;;;;;;;;;5065528;28;20039;-67
2024/03/03 06:59:42;;;;;;;33.90;31.92;;;;;;;;;;5062947;28;20528;-67
2024/03/03 07:02:57;;;;;;;33.75;31.85;;;;;;;;;;5062706;28;20052;-67
2024/03/03 07:05:34;;;;;;;31.42;29.27;;;;;;;;;;5062414;28;20111;-65
2024/03/03 07:08:20;;;;;;;33.13;31.23;;;;;;;;;;5058806;28;20189;-66
2024/03/03 07:11:06;;;;;;;30.73;28.55;;;;;;;;;;5063144;28;20033;-66
2024/03/03 07:13:51;;;;;;;33.60;31.67;;;;;;;;;;5061223;28;20720;-68
2024/03/03 07:16:37;;;;;;;34.63;31.23;;;;;;;;;;5064120;28;20783;-67
2024/03/03 07:19:23;;;;;;;36.60;34.20;;;;;;;;;;5060765;28;20051;-68
2024/03/03 07:22:08;;;;;;;34.22;32.20;;;;;;;;;;5062657;28;20378;-68
2024/03/03 07:24:54;;;;;;;32.47;30.67;;;;;;;;;;5064467;28;20035;-68
2024/03/03 07:27:39;;;;;;;32.20;30.48;;;;;;;;;;5065808;28;20470;-68
2024/03/03 07:30:25;;;;;;;30.33;28.65;;;;;;;;;;5063186;28;20525;-67
2024/03/03 07:33:11;;;;;;;26.98;25.48;;;;;;;;;;5060352;28;20637;-68
2024/03/03 07:35:57;;;;;;;27.25;25.55;;;;;;;;;;5063910;28;20645;-68
2024/03/03 07:38:42;;;;;;;23.13;21.58;;;;;;;;;;5062903;28;20189;-68
2024/03/03 07:41:28;;;;;;;23.90;22.40;;;;;;;;;;5061791;28;20036;-68
2024/03/03 07:44:15;;;;;;;24.48;23.08;;;;;;;;;;5061511;28;20131;-65
2024/03/03 07:47:00;;;;;;;25.35;23.85;;;;;;;;;;5067245;28;20051;-65
2024/03/03 07:49:46;;;;;;;25.58;23.73;;;;;;;;;;5063650;28;20414;-65
2024/03/03 07:52:31;;;;;;;24.52;23.02;;;;;;;;;;5061975;28;20369;-65
2024/03/03 07:55:17;;;;;;;26.80;25.15;;;;;;;;;;5062881;28;20529;-65
2024/03/03 07:58:03;;;;;;;29.77;28.08;;;;;;;;;;5063004;28;20037;-65
2024/03/03 08:00:49;;;;;;;29.92;28.23;;;;;;;;;;5060284;28;20583;-65
2024/03/03 08:03:34;;;;;;;30.17;28.48;;;;;;;;;;5063991;28;20642;-66
2024/03/03 08:06:20;;;;;;;30.73;29.00;;;;;;;;;;5062234;28;20044;-66
2024/03/03 08:09:06;;;;;;;29.67;27.98;;;;;;;;;;5065279;28;20104;-64
2024/03/03 08:11:52;;;;;;;30.55;28.83;;;;;;;;;;5065345;28;20036;-67
2024/03/03 08:14:37;;;;;;;30.77;28.98;;;;;;;;;;5064247;28;20496;-65
2024/03/03 08:17:23;;;;;;;32.72;30.88;;;;;;;;;;5046826;28;20048;-66
2024/03/03 08:20:13;;;;;;;38.60;36.42;;;;;;;;;;5062784;28;20050;-66
2024/03/03 08:22:59;;;;;;;41.22;38.72;;;;;;;;;;5063524;28;20045;-66
2024/03/03 08:25:45;;;;;;;48.42;45.55;;;;;;;;;;5063793;28;20041;-67
2024/03/03 08:28:34;;;;;;;47.33;44.83;;;;;;;;;;5063531;28;20590;-67
2024/03/03 08:31:20;;;;;;;50.33;47.65;;;;;;;;;;5063368;28;20036;-67
2024/03/03 08:34:05;;;;;;;48.67;46.08;;;;;;;;;;5062954;28;20046;-67
2024/03/03 08:36:51;;;;;;;42.03;39.75;;;;;;;;;;5062631;28;20593;-66
2024/03/03 08:39:36;;;;;;;38.15;35.75;;;;;;;;;;5061086;28;20041;-66
2024/03/03 08:42:22;;;;;;;32.63;30.30;;;;;;;;;;5062996;28;20631;-65
2024/03/03 08:45:08;;;;;;;31.75;29.80;;;;;;;;;;5062115;28;20135;-65
2024/03/03 08:47:54;;;;;;;32.28;30.38;;;;;;;;;;5062967;28;20028;-66
2024/03/03 08:50:39;;;;;;;31.35;29.42;;;;;;;;;;5059745;28;20097;-64
2024/03/03 08:53:25;;;;;;;30.25;28.55;;;;;;;;;;5059025;28;20390;-64
2024/03/03 08:56:11;;;;;;;31.77;29.55;;;;;;;;;;5063835;28;20043;-63
2024/03/03 08:58:56;;;;;;;28.70;27.15;;;;;;;;;;5061853;28;20382;-64
2024/03/03 09:01:42;;;;;;;31.63;29.83;;;;;;;;;;5048959;28;20604;-64
2024/03/03 09:04:28;;;;;;;33.83;31.55;;;;;;;;;;5059704;28;20044;-64
2024/03/03 09:07:13;;;;;;;36.28;33.97;;;;;;;;;;5062897;28;20044;-63
2024/03/03 09:09:59;;;;;;;43.55;41.03;;;;;;;;;;5061760;28;20359;-65
2024/03/03 09:12:45;;;;;;;56.08;53.15;;;;;;;;;;5064747;28;20125;-63
2024/03/03 09:15:30;;;;;;;62.80;59.38;;;;;;;;;;5062497;28;20040;-62
2024/03/03 09:18:16;;;;;;;73.43;69.55;;;;;;;;;;5060714;28;20040;-64
2024/03/03 09:21:05;;;;;;;71.30;67.32;;;;;;;;;;5062253;28;20105;-64
2024/03/03 09:23:51;;;;;;;79.40;75.28;;;;;;;;;;5063635;28;20047;-64
2024/03/03 09:26:37;;;;;;;71.53;67.85;;;;;;;;;;5059774;28;20635;-63
2024/03/03 09:29:22;;;;;;;66.95;63.40;;;;;;;;;;5061832;28;20517;-64
2024/03/03 09:32:08;;;;;;;67.93;64.35;;;;;;;;;;5064924;28;21126;-64
2024/03/03 09:34:54;;;;;;;83.22;78.72;;;;;;;;;;5059192;28;20474;-63
2024/03/03 09:37:39;;;;;;;66.20;62.22;;;;;;;;;;5060590;28;20044;-63
2024/03/03 09:40:25;;;;;;;59.47;56.20;;;;;;;;;;5056672;28;20040;-64
2024/03/03 09:43:16;;;;;;;41.88;39.38;;;;;;;;;;5062896;28;20040;-63
2024/03/03 09:46:03;;;;;;;41.45;39.20;;;;;;;;;;5059259;28;20098;-62
2024/03/03 09:48:50;;;;;;;43.10;40.38;;;;;;;;;;5066747;28;20040;-64
2024/03/03 09:51:38;;;;;;;32.28;30.35;;;;;;;;;;5059605;28;20036;-64
2024/03/03 09:54:25;;;;;;;31.75;29.98;;;;;;;;;;5058456;28;20040;-64
2024/03/03 09:57:14;;;;;;;27.92;26.23;;;;;;;;;;5062695;28;20105;-64
2024/03/03 10:00:00;;;;;;;27.30;25.77;;;;;;;;;;5061050;28;20603;-66
2024/03/03 10:02:46;;;;;;;30.50;28.73;;;;;;;;;;5059578;28;20036;-64
2024/03/03 10:05:35;;;;;;;33.15;31.20;;;;;;;;;;5059371;28;20047;-64
2024/03/03 10:08:22;;;;;;;31.10;29.35;;;;;;;;;;5060382;28;20051;-65
2024/03/03 10:11:13;;;;;;;31.50;29.65;;;;;;;;;;5065331;28;20044;-63
2024/03/03 10:13:58;;;;;;;29.45;27.85;;;;;;;;;;5061837;28;20032;-65
2024/03/03 10:16:44;;;;;;;31.38;29.52;;;;;;;;;;5063530;28;20144;-64
2024/03/03 10:19:30;;;;;;;34.40;32.15;;;;;;;;;;5060071;28;20032;-66
2024/03/03 10:22:20;;;;;;;28.10;26.38;;;;;;;;;;5063639;28;21275;-65
2024/03/03 10:25:14;;;;;;;28.38;26.58;;;;;;;;;;5061937;28;20123;-66
2024/03/03 10:28:13;;;;;;;27.17;25.50;;;;;;;;;;5063083;28;20047;-69
2024/03/03 10:31:18;;;;;;;26.88;25.17;;;;;;;;;;5059865;28;20036;-66
2024/03/03 10:34:03;;;;;;;26.00;24.45;;;;;;;;;;5062160;28;20032;-66
2024/03/03 10:37:00;;;;;;;25.85;24.27;;;;;;;;;;5063069;28;20048;-65
2024/03/03 10:39:49;;;;;;;28.85;26.92;;;;;;;;;;5062622;28;20127;-66
2024/03/03 10:42:34;;;;;;;29.35;27.58;;;;;;;;;;5061669;28;20036;-65
2024/03/03 10:45:20;;;;;;;29.42;27.55;;;;;;;;;;5060515;28;20672;-66
2024/03/03 10:48:06;;;;;;;28.27;26.58;;;;;;;;;;5061614;28;20096;-65
2024/03/03 10:50:52;;;;;;;31.25;29.25;;;;;;;;;;5060754;28;20074;-65
2024/03/03 10:53:37;;;;;;;28.13;26.63;;;;;;;;;;5060776;28;20036;-66
2024/03/03 10:56:23;;;;;;;29.80;28.05;;;;;;;;;;5061346;28;20048;-66
2024/03/03 10:59:10;;;;;;;35.58;33.40;;;;;;;;;;5055407;28;20044;-67
2024/03/03 11:01:57;;;;;;;35.25;33.30;;;;;;;;;;5061205;28;20884;-66
2024/03/03 11:04:42;;;;;;;33.67;31.88;;;;;;;;;;5061147;28;20457;-66
2024/03/03 11:07:29;;;;;;;35.58;33.67;;;;;;;;;;5064694;28;20040;-66
2024/03/03 11:10:15;;;;;;;33.70;31.85;;;;;;;;;;5065544;28;20032;-66
2024/03/03 11:13:04;;;;;;;32.45;30.58;;;;;;;;;;5066546;28;20044;-65
2024/03/03 11:15:55;;;;;;;35.95;33.92;;;;;;;;;;5064818;28;20056;-66
2024/03/03 11:18:48;;;;;;;29.92;28.33;;;;;;;;;;5063978;28;20037;-66
2024/03/03 11:21:37;;;;;;;30.73;28.90;;;;;;;;;;5054375;28;20040;-67
2024/03/03 11:24:30;;;;;;;33.08;31.15;;;;;;;;;;5067154;28;20048;-66
2024/03/03 11:27:22;;;;;;;38.92;36.80;;;;;;;;;;5063786;28;20701;-66
2024/03/03 11:30:12;;;;;;;30.02;28.20;;;;;;;;;;5065777;28;21159;-68
2024/03/03 11:32:58;;;;;;;29.13;27.52;;;;;;;;;;5050548;28;20148;-67
2024/03/03 11:35:46;;;;;;;28.58;27.02;;;;;;;;;;5065303;28;20055;-67
2024/03/03 11:38:45;;;;;;;28.98;27.27;;;;;;;;;;5066756;28;20040;-67
2024/03/03 11:41:38;;;;;;;28.27;26.73;;;;;;;;;;5066724;28;20047;-67
2024/03/03 11:44:48;;;;;;;27.73;25.70;;;;;;;;;;5063046;28;20039;-67
2024/03/03 11:47:35;;;;;;;26.98;25.48;;;;;;;;;;5068380;28;20090;-67
2024/03/03 11:50:24;;;;;;;31.85;29.95;;;;;;;;;;5062641;28;20044;-68
2024/03/03 11:53:09;;;;;;;31.15;29.42;;;;;;;;;;5065300;28;20052;-68
2024/03/03 11:55:55;;;;;;;28.50;27.00;;;;;;;;;;5068300;28;20175;-68
2024/03/03 11:58:41;;;;;;;29.83;28.13;;;;;;;;;;5067287;28;20602;-68
2024/03/03 12:01:31;;;;;;;29.10;27.50;;;;;;;;;;5055411;28;20055;-67
2024/03/03 12:04:16;;;;;;;30.07;28.37;;;;;;;;;;5066404;28;20047;-68
2024/03/03 12:07:04;;;;;;;28.27;26.77;;;;;;;;;;5065049;28;20255;-68
2024/03/03 12:09:50;;;;;;;29.88;28.27;;;;;;;;;;5064049;28;20033;-59
2024/03/03 12:12:39;;;;;;;32.33;30.52;;;;;;;;;;5053193;28;20032;-59
2024/03/03 12:15:26;;;;;;;32.05;30.17;;;;;;;;;;5065288;28;20067;-59
2024/03/03 12:18:12;;;;;;;31.55;29.75;;;;;;;;;;5063211;28;20117;-59
2024/03/03 12:20:58;;;;;;;34.10;32.25;;;;;;;;;;5065311;28;20051;-59
2024/03/03 12:23:43;;;;;;;32.47;30.67;;;;;;;;;;5063291;28;20036;-59
2024/03/03 12:26:30;;;;;;;33.38;31.58;;;;;;;;;;5064450;28;20051;-59
2024/03/03 12:29:16;;;;;;;31.55;29.65;;;;;;;;;;5065395;28;20024;-59
2024/03/03 12:32:04;;;;;;;29.65;28.05;;;;;;;;;;5064865;28;20047;-59
2024/03/03 12:34:50;;;;;;;31.83;30.13;;;;;;;;;;5073944;28;20052;-59
2024/03/03 12:37:36;;;;;;;29.60;27.85;;;;;;;;;;5063102;28;20050;-59
2024/03/03 12:40:23;;;;;;;30.23;28.38;;;;;;;;;;5065838;28;20029;-59
2024/03/03 12:43:13;;;;;;;35.45;33.53;;;;;;;;;;5061784;28;20151;-59
2024/03/03 12:46:00;;;;;;;33.73;31.93;;;;;;;;;;5063398;28;20051;-59
2024/03/03 12:48:45;;;;;;;30.40;28.73;;;;;;;;;;5048958;28;20032;-59
2024/03/03 12:51:31;;;;;;;31.52;29.73;;;;;;;;;;5061169;28;20048;-59
2024/03/03 12:54:17;;;;;;;34.00;32.13;;;;;;;;;;5059243;28;20519;-59
2024/03/03 12:57:03;;;;;;;31.75;29.85;;;;;;;;;;5063448;28;20075;-59
2024/03/03 12:59:48;;;;;;;34.10;32.20;;;;;;;;;;5060016;28;20028;-59
2024/03/03 13:02:34;;;;;;;35.17;33.30;;;;;;;;;;5063737;28;20044;-60
2024/03/03 13:05:22;;;;;;;32.22;30.52;;;;;;;;;;5064507;28;20644;-59
2024/03/03 13:08:10;;;;;;;29.73;28.08;;;;;;;;;;5048866;28;20185;-59
2024/03/03 13:10:56;;;;;;;27.70;26.20;;;;;;;;;;5066147;28;20615;-59
2024/03/03 13:13:42;;;;;;;30.70;28.98;;;;;;;;;;5063209;28;20032;-59
2024/03/03 13:16:28;;;;;;;29.38;27.67;;;;;;;;;;5066116;28;20040;-60
2024/03/03 13:19:17;;;;;;;30.33;28.67;;;;;;;;;;5061473;28;21124;-59
2024/03/03 13:22:03;;;;;;;32.00;30.20;;;;;;;;;;5062995;28;20137;-59
2024/03/03 13:25:01;;;;;;;29.08;27.48;;;;;;;;;;5064541;28;20500;-60
2024/03/03 13:27:47;;;;;;;32.95;31.25;;;;;;;;;;5060014;28;20382;-59
2024/03/03 13:30:34;;;;;;;28.77;27.05;;;;;;;;;;5063398;28;20037;-60
2024/03/03 13:33:20;;;;;;;31.67;30.00;;;;;;;;;;5064697;28;20028;-60
2024/03/03 13:36:10;;;;;;;35.55;33.47;;;;;;;;;;5049322;28;20047;-60
2024/03/03 13:38:55;;;;;;;30.80;29.10;;;;;;;;;;5062974;28;20073;-60
2024/03/03 13:41:41;;;;;;;32.67;30.65;;;;;;;;;;5061799;28;20040;-60
2024/03/03 13:44:27;;;;;;;34.50;32.70;;;;;;;;;;5059543;28;20036;-60
2024/03/03 13:47:13;;;;;;;30.98;29.27;;;;;;;;;;5062233;28;20667;-60
2024/03/03 13:49:59;;;;;;;34.60;32.78;;;;;;;;;;5063621;28;20155;-60
2024/03/03 13:52:45;;;;;;;39.00;36.95;;;;;;;;;;5062576;28;20076;-60
2024/03/03 13:55:30;;;;;;;44.40;40.78;;;;;;;;;;5061555;28;20093;-60
2024/03/03 13:58:16;;;;;;;36.85;34.95;;;;;;;;;;5062613;28;20044;-60
2024/03/03 14:01:04;;;;;;;40.33;38.22;;;;;;;;;;5061503;28;20077;-60
2024/03/03 14:03:50;;;;;;;38.80;36.78;;;;;;;;;;5061516;28;20076;-60
2024/03/03 14:06:37;;;;;;;40.42;38.33;;;;;;;;;;5057910;28;20033;-60
2024/03/03 14:09:23;;;;;;;40.03;37.92;;;;;;;;;;5063651;28;20040;-61
2024/03/03 14:12:09;;;;;;;40.05;37.95;;;;;;;;;;5062001;28;20477;-61
2024/03/03 14:14:55;;;;;;;41.47;39.17;;;;;;;;;;5062853;28;20044;-60
2024/03/03 14:17:41;;;;;;;40.85;38.58;;;;;;;;;;5062066;28;20037;-60
2024/03/03 14:20:27;;;;;;;38.35;36.35;;;;;;;;;;5061578;28;20036;-60
2024/03/03 14:23:13;;;;;;;38.58;36.58;;;;;;;;;;5062955;28;20037;-60
2024/03/03 14:25:59;;;;;;;80.55;76.47;;;;;;;;;;5061378;28;20121;-61
2024/03/03 14:28:45;;;;;;;59.05;55.95;;;;;;;;;;5060712;28;20044;-61
2024/03/03 14:31:30;;;;;;;37.25;35.15;;;;;;;;;;5047140;28;20043;-60
2024/03/03 14:34:16;;;;;;;39.95;37.80;;;;;;;;;;5047616;28;20048;-60
2024/03/03 14:37:02;;;;;;;53.15;50.40;;;;;;;;;;5060119;28;20067;-62
2024/03/03 14:39:48;;;;;;;83.05;78.90;;;;;;;;;;5065566;28;20036;-60
2024/03/03 14:42:33;;;;;;;58.42;55.40;;;;;;;;;;5064814;28;20068;-60
2024/03/03 14:45:19;;;;;;;59.50;56.38;;;;;;;;;;5067140;28;20050;-60
2024/03/03 14:48:05;;;;;;;52.50;49.72;;;;;;;;;;5063163;28;20142;-60
2024/03/03 14:50:50;;;;;;;75.13;71.28;;;;;;;;;;5062817;28;20036;-60
2024/03/03 14:53:36;;;;;;;85.32;80.90;;;;;;;;;;5065155;28;20063;-62
2024/03/03 14:56:22;;;;;;;76.82;72.82;;;;;;;;;;5065769;28;20060;-60
2024/03/03 14:59:08;;;;;;;75.53;71.70;;;;;;;;;;5066118;28;20041;-61
2024/03/03 15:01:54;;;;;;;88.15;83.78;;;;;;;;;;5063676;28;20044;-60
2024/03/03 15:04:39;;;;;;;72.57;68.90;;;;;;;;;;5051734;28;20044;-60
2024/03/03 15:07:25;;;;;;;76.78;72.75;;;;;;;;;;5066031;28;20036;-60
2024/03/03 15:10:10;;;;;;;67.03;63.55;;;;;;;;;;5048515;28;20143;-60
2024/03/03 15:12:56;;;;;;;31.30;29.60;;;;;;;;;;5063684;28;20626;-60
2024/03/03 15:15:42;;;;;;;30.70;29.08;;;;;;;;;;5065683;28;20039;-61
2024/03/03 15:18:27;;;;;;;33.53;31.80;;;;;;;;;;5062989;28;20840;-60
2024/03/03 15:21:13;;;;;;;43.63;41.28;;;;;;;;;;5066277;28;20064;-61
2024/03/03 15:23:58;;;;;;;41.45;39.35;;;;;;;;;;5065882;28;20628;-59
2024/03/03 15:26:44;;;;;;;38.58;36.45;;;;;;;;;;5067041;28;20505;-59
2024/03/03 15:29:30;;;;;;;37.80;35.83;;;;;;;;;;5065722;28;20043;-60
2024/03/03 15:32:16;;;;;;;38.45;36.45;;;;;;;;;;5067988;28;20033;-60
2024/03/03 15:35:01;;;;;;;41.60;39.20;;;;;;;;;;5062286;28;20044;-61
2024/03/03 15:37:48;;;;;;;36.20;34.22;;;;;;;;;;5065361;28;20059;-60
2024/03/03 15:40:33;;;;;;;35.63;33.78;;;;;;;;;;5064152;28;20044;-61
2024/03/03 15:43:19;;;;;;;36.17;34.17;;;;;;;;;;5062209;28;20032;-61
2024/03/03 15:46:05;;;;;;;37.15;35.15;;;;;;;;;;5047337;28;20102;-60
2024/03/03 15:48:51;;;;;;;34.60;32.80;;;;;;;;;;5064603;28;20045;-61
2024/03/03 15:51:39;;;;;;;35.70;33.80;;;;;;;;;;5063681;28;20039;-61
2024/03/03 15:54:24;;;;;;;35.95;33.63;;;;;;;;;;5064346;28;20117;-61
2024/03/03 15:57:10;;;;;;;34.80;32.72;;;;;;;;;;5064707;28;20173;-60
2024/03/03 15:59:56;;;;;;;34.40;32.60;;;;;;;;;;5050324;28;20109;-60
2024/03/03 16:02:42;;;;;;;36.65;34.72;;;;;;;;;;5068483;28;20032;-60
2024/03/03 16:05:28;;;;;;;36.17;34.25;;;;;;;;;;5063496;28;20101;-70
2024/03/03 16:08:15;;;;;;;34.83;32.92;;;;;;;;;;5066591;28;20037;-70